createdAt,value
2022-10-05T00:00:15.392Z,9.77
2022-10-05T00:02:42.102Z,9.80
2022-10-05T00:05:25.619Z,9.90
2022-10-05T00:07:54.223Z,9.89
2022-10-05T00:10:20.727Z,9.81
2022-10-05T00:12:48.771Z,9.80
2022-10-05T00:15:18.423Z,9.77
2022-10-05T00:17:44.926Z,9.76
2022-10-05T00:20:24.511Z,9.75
2022-10-05T00:23:00.862Z,9.87
2022-10-05T00:25:27.346Z,9.90
2022-10-05T00:27:56.668Z,9.80
2022-10-05T00:30:25.333Z,9.83
2022-10-05T00:32:59.300Z,9.90
2022-10-05T00:35:26.158Z,9.89
2022-10-05T00:37:55.548Z,9.80
2022-10-05T00:40:37.120Z,9.78
2022-10-05T00:43:21.663Z,9.74
2022-10-05T00:46:00.028Z,9.68
2022-10-05T00:48:37.103Z,9.66
2022-10-05T00:51:11.408Z,9.63
2022-10-05T00:53:49.980Z,9.56
2022-10-05T00:56:25.530Z,9.49
2022-10-05T00:58:55.012Z,9.46
2022-10-05T01:01:33.734Z,9.38
2022-10-05T01:04:27.580Z,9.41
2022-10-05T01:07:03.465Z,9.39
2022-10-05T01:10:00.020Z,9.35
2022-10-05T01:12:36.975Z,9.29
2022-10-05T01:15:41.276Z,9.23
2022-10-05T01:18:19.724Z,9.20
2022-10-05T01:21:01.518Z,9.14
2022-10-05T01:23:48.990Z,9.09
2022-10-05T01:26:33.859Z,9.04
2022-10-05T01:29:32.524Z,9.02
2022-10-05T01:32:11.290Z,8.99
2022-10-05T01:35:09.982Z,8.93
2022-10-05T01:37:42.428Z,8.94
2022-10-05T01:40:31.165Z,8.91
2022-10-05T01:43:16.128Z,8.90
2022-10-05T01:46:01.281Z,8.90
2022-10-05T01:49:00.316Z,8.88
2022-10-05T01:51:47.825Z,8.87
2022-10-05T01:54:23.070Z,8.83
2022-10-05T01:57:13.978Z,8.81
2022-10-05T01:59:40.279Z,8.79
2022-10-05T02:02:11.047Z,8.80
2022-10-05T02:05:01.568Z,8.81
2022-10-05T02:07:56.004Z,8.90
2022-10-05T02:10:28.717Z,8.91
2022-10-05T02:13:05.217Z,9.01
2022-10-05T02:15:43.202Z,9.01
2022-10-05T02:18:17.615Z,9.03
2022-10-05T02:20:46.452Z,8.98
2022-10-05T02:23:19.722Z,9.03
2022-10-05T02:25:49.475Z,8.98
2022-10-05T02:28:25.694Z,8.94
2022-10-05T02:31:01.485Z,8.96
2022-10-05T02:33:30.020Z,8.91
2022-10-05T02:36:02.266Z,8.91
2022-10-05T02:38:53.372Z,8.95
2022-10-05T02:41:37.884Z,9.10
2022-10-05T02:44:22.405Z,9.02
2022-10-05T02:47:04.270Z,9.01
2022-10-05T02:50:05.927Z,9.04
2022-10-05T02:52:41.234Z,9.04
2022-10-05T02:55:10.445Z,9.03
2022-10-05T02:58:20.697Z,9.01
2022-10-05T03:01:22.539Z,9.02
2022-10-05T03:04:15.826Z,8.99
2022-10-05T03:06:58.660Z,9.04
2022-10-05T03:09:29.028Z,9.08
2022-10-05T03:12:09.179Z,9.06
2022-10-05T03:14:57.699Z,9.13
2022-10-05T03:17:47.205Z,9.14
2022-10-05T03:20:31.911Z,9.07
2022-10-05T03:23:04.824Z,9.09
2022-10-05T03:25:43.783Z,9.14
2022-10-05T03:28:40.358Z,9.18
2022-10-05T03:31:18.949Z,9.20
2022-10-05T03:34:05.510Z,9.17
2022-10-05T03:36:40.822Z,9.15
2022-10-05T03:39:17.253Z,9.24
2022-10-05T03:42:15.928Z,9.22
2022-10-05T03:45:07.547Z,9.40
2022-10-05T03:47:47.776Z,9.41
2022-10-05T03:50:42.466Z,9.46
2022-10-05T03:53:25.733Z,9.47
2022-10-05T03:55:59.788Z,9.42
2022-10-05T03:58:29.408Z,9.49
2022-10-05T04:01:05.471Z,9.48
2022-10-05T04:03:58.104Z,9.49
2022-10-05T04:06:33.105Z,9.47
2022-10-05T04:09:12.993Z,9.46
2022-10-05T04:11:47.263Z,9.48
2022-10-05T04:14:32.090Z,9.48
2022-10-05T04:17:03.490Z,9.53
2022-10-05T04:19:44.281Z,9.51
2022-10-05T04:22:29.380Z,9.47
2022-10-05T04:24:58.565Z,9.46
2022-10-05T04:27:33.299Z,9.52
2022-10-05T04:30:16.719Z,9.45
2022-10-05T04:32:52.189Z,9.53
2022-10-05T04:35:45.235Z,9.46
2022-10-05T04:38:34.817Z,9.56
2022-10-05T04:41:25.339Z,9.47
2022-10-05T04:44:06.869Z,9.50
2022-10-05T04:46:41.334Z,9.56
2022-10-05T04:49:16.559Z,9.59
2022-10-05T04:52:07.670Z,9.56
2022-10-05T04:54:47.219Z,9.53
2022-10-05T04:57:25.749Z,9.49
2022-10-05T05:00:24.729Z,9.49
2022-10-05T05:03:16.062Z,9.41
2022-10-05T05:06:17.714Z,9.49
2022-10-05T05:09:18.341Z,9.46
2022-10-05T05:12:00.728Z,9.40
2022-10-05T05:14:56.756Z,9.30
2022-10-05T05:17:34.835Z,9.37
2022-10-05T05:20:16.440Z,9.36
2022-10-05T05:22:55.631Z,9.32
2022-10-05T05:25:47.244Z,9.32
2022-10-05T05:28:34.987Z,9.39
2022-10-05T05:31:24.344Z,9.36
2022-10-05T05:34:28.537Z,9.32
2022-10-05T05:37:07.153Z,9.33
2022-10-05T05:39:53.809Z,9.36
2022-10-05T05:42:26.170Z,9.43
2022-10-05T05:44:53.907Z,9.39
2022-10-05T05:47:35.253Z,9.47
2022-10-05T05:50:12.857Z,9.40
2022-10-05T05:52:56.923Z,9.39
2022-10-05T05:55:32.943Z,9.42
2022-10-05T05:58:18.138Z,9.37
2022-10-05T06:00:50.920Z,9.38
2022-10-05T06:03:55.522Z,9.39
2022-10-05T06:06:26.882Z,9.42
2022-10-05T06:09:00.685Z,9.47
2022-10-05T06:11:51.639Z,9.53
2022-10-05T06:14:28.822Z,9.63
2022-10-05T06:17:02.981Z,9.66
2022-10-05T06:19:35.443Z,9.80
2022-10-05T06:22:23.326Z,9.81
2022-10-05T06:25:04.760Z,9.78
2022-10-05T06:27:56.817Z,9.81
2022-10-05T06:30:23.928Z,9.83
2022-10-05T06:32:50.218Z,9.81
2022-10-05T06:35:38.620Z,9.84
2022-10-05T06:38:12.802Z,9.88
2022-10-05T06:41:00.725Z,9.90
2022-10-05T06:43:40.611Z,9.97
2022-10-05T06:46:14.224Z,10.01
2022-10-05T06:48:59.407Z,10.11
2022-10-05T06:51:52.378Z,10.10
2022-10-05T06:54:57.249Z,10.13
2022-10-05T06:57:52.023Z,10.18
2022-10-05T07:00:21.481Z,10.20
2022-10-05T07:02:51.628Z,10.23
2022-10-05T07:05:30.322Z,10.28
2022-10-05T07:08:09.297Z,10.39
2022-10-05T07:11:09.708Z,10.48
2022-10-05T07:13:47.704Z,10.52
2022-10-05T07:16:54.671Z,10.71
2022-10-05T07:19:33.296Z,10.80
2022-10-05T07:22:11.722Z,10.97
2022-10-05T07:24:50.522Z,11.14
2022-10-05T07:27:21.048Z,11.24
2022-10-05T07:30:01.632Z,11.39
2022-10-05T07:33:05.224Z,11.62
2022-10-05T07:36:11.729Z,11.84
2022-10-05T07:38:52.662Z,12.06
2022-10-05T07:41:30.076Z,12.25
2022-10-05T07:44:02.810Z,12.29
2022-10-05T07:46:32.360Z,12.46
2022-10-05T07:49:26.365Z,12.53
2022-10-05T07:52:01.422Z,12.61
2022-10-05T07:54:45.748Z,12.72
2022-10-05T07:57:27.028Z,12.85
2022-10-05T08:00:05.643Z,12.96
2022-10-05T08:02:44.377Z,13.04
2022-10-05T08:05:30.794Z,13.11
2022-10-05T08:08:21.353Z,13.18
2022-10-05T08:11:09.233Z,13.25
2022-10-05T08:13:42.353Z,13.30
2022-10-05T08:16:12.667Z,13.36
2022-10-05T08:18:56.153Z,13.44
2022-10-05T08:21:38.052Z,13.53
2022-10-05T08:24:15.503Z,13.57
2022-10-05T08:27:03.252Z,13.67
2022-10-05T08:30:12.330Z,13.71
2022-10-05T08:32:52.371Z,13.80
2022-10-05T08:35:28.007Z,13.89
2022-10-05T08:37:55.170Z,13.96
2022-10-05T08:40:58.415Z,14.11
2022-10-05T08:43:43.593Z,14.17
2022-10-05T08:46:28.474Z,14.29
2022-10-05T08:49:19.882Z,14.31
2022-10-05T08:51:54.421Z,14.37
2022-10-05T08:54:39.762Z,14.46
2022-10-05T08:57:22.747Z,14.62
2022-10-05T09:00:06.259Z,14.65
2022-10-05T09:02:54.382Z,14.70
2022-10-05T09:05:26.269Z,14.78
2022-10-05T09:08:04.626Z,14.89
2022-10-05T09:11:02.522Z,14.99
2022-10-05T09:13:38.773Z,15.02
2022-10-05T09:16:30.370Z,15.20
2022-10-05T09:19:24.209Z,15.22
2022-10-05T09:21:58.015Z,15.26
2022-10-05T09:24:56.448Z,15.36
2022-10-05T09:27:36.224Z,15.49
2022-10-05T09:30:05.769Z,15.61
2022-10-05T09:32:51.699Z,15.63
2022-10-05T09:35:52.253Z,15.73
2022-10-05T09:38:50.809Z,15.80
2022-10-05T09:41:35.958Z,15.86
2022-10-05T09:44:05.095Z,15.95
2022-10-05T09:47:08.844Z,16.08
2022-10-05T09:50:07.336Z,16.25
2022-10-05T09:53:04.869Z,16.30
2022-10-05T09:56:10.921Z,16.34
2022-10-05T09:59:07.357Z,16.43
2022-10-05T10:01:48.226Z,16.50
2022-10-05T10:04:48.215Z,16.59
2022-10-05T10:07:50.186Z,16.62
2022-10-05T10:10:22.239Z,16.74
2022-10-05T10:13:00.695Z,16.79
2022-10-05T10:15:43.921Z,16.84
2022-10-05T10:18:28.379Z,16.92
2022-10-05T10:21:13.319Z,17.09
2022-10-05T10:24:14.801Z,17.01
2022-10-05T10:27:27.391Z,17.10
2022-10-05T10:29:53.786Z,17.12
2022-10-05T10:32:57.567Z,17.27
2022-10-05T10:35:40.444Z,17.33
2022-10-05T10:38:25.591Z,17.50
2022-10-05T10:41:18.629Z,17.65
2022-10-05T10:43:59.651Z,17.69
2022-10-05T10:46:46.811Z,17.83
2022-10-05T10:49:25.971Z,17.85
2022-10-05T10:52:16.791Z,17.91
2022-10-05T10:55:11.598Z,18.03
2022-10-05T10:57:53.869Z,18.12
2022-10-05T11:00:44.103Z,18.23
2022-10-05T11:03:44.586Z,18.32
2022-10-05T11:06:55.010Z,18.35
2022-10-05T11:09:24.311Z,18.51
2022-10-05T11:11:59.896Z,18.57
2022-10-05T11:14:35.469Z,18.57
2022-10-05T11:17:39.477Z,18.72
2022-10-05T11:20:11.911Z,18.69
2022-10-05T11:23:14.162Z,18.67
2022-10-05T11:25:55.207Z,18.68
2022-10-05T11:28:45.476Z,18.70
2022-10-05T11:31:35.566Z,18.85
2022-10-05T11:34:18.101Z,18.87
2022-10-05T11:37:02.965Z,18.94
2022-10-05T11:39:39.449Z,19.03
2022-10-05T11:42:28.303Z,19.00
2022-10-05T11:45:16.321Z,19.08
2022-10-05T11:48:07.233Z,19.30
2022-10-05T11:50:52.274Z,19.23
2022-10-05T11:53:27.048Z,19.37
2022-10-05T11:56:22.524Z,19.41
2022-10-05T11:59:03.539Z,19.35
2022-10-05T12:01:36.706Z,19.38
2022-10-05T12:04:18.310Z,19.25
2022-10-05T12:06:44.654Z,19.32
2022-10-05T12:09:17.320Z,19.42
2022-10-05T12:11:58.071Z,19.45
2022-10-05T12:14:42.705Z,19.51
2022-10-05T12:17:24.123Z,19.48
2022-10-05T12:20:00.254Z,19.61
2022-10-05T12:22:46.143Z,19.63
2022-10-05T12:25:26.922Z,19.61
2022-10-05T12:27:58.644Z,19.50
2022-10-05T12:30:29.378Z,19.61
2022-10-05T12:33:17.113Z,19.63
2022-10-05T12:36:36.028Z,19.75
2022-10-05T12:39:34.724Z,19.79
2022-10-05T12:42:22.553Z,19.98
2022-10-05T12:45:01.122Z,19.77
2022-10-05T12:47:33.639Z,19.91
2022-10-05T12:50:18.925Z,19.93
2022-10-05T12:52:57.256Z,19.97
2022-10-05T12:55:34.714Z,20.09
2022-10-05T12:58:12.042Z,20.07
2022-10-05T13:00:51.820Z,20.00
2022-10-05T13:03:25.576Z,20.05
2022-10-05T13:06:10.845Z,20.12
2022-10-05T13:08:51.294Z,20.10
2022-10-05T13:11:28.291Z,20.16
2022-10-05T13:14:16.432Z,20.19
2022-10-05T13:17:04.618Z,20.13
2022-10-05T13:19:30.931Z,20.34
2022-10-05T13:22:20.073Z,20.32
2022-10-05T13:24:59.307Z,20.25
2022-10-05T13:27:40.816Z,20.12
2022-10-05T13:30:16.072Z,20.21
2022-10-05T13:33:05.930Z,20.40
2022-10-05T13:35:52.664Z,20.32
2022-10-05T13:38:20.172Z,20.23
2022-10-05T13:41:03.333Z,20.21
2022-10-05T13:43:58.477Z,20.36
2022-10-05T13:46:40.039Z,20.17
2022-10-05T13:49:28.863Z,20.36
2022-10-05T13:51:58.764Z,20.27
2022-10-05T13:54:56.513Z,20.33
2022-10-05T13:57:34.504Z,20.28
2022-10-05T14:00:18.780Z,20.29
2022-10-05T14:02:54.032Z,20.17
2022-10-05T14:05:27.062Z,20.13
2022-10-05T14:08:00.861Z,20.10
2022-10-05T14:10:31.340Z,20.14
2022-10-05T14:12:58.162Z,20.11
2022-10-05T14:15:38.478Z,20.15
2022-10-05T14:18:37.798Z,20.02
2022-10-05T14:21:13.482Z,20.14
2022-10-05T14:23:42.638Z,20.08
2022-10-05T14:26:32.632Z,20.00
2022-10-05T14:29:02.667Z,20.20
2022-10-05T14:31:36.026Z,20.11
2022-10-05T14:34:32.861Z,20.10
2022-10-05T14:37:31.247Z,20.12
2022-10-05T14:40:20.073Z,20.05
2022-10-05T14:42:47.525Z,19.97
2022-10-05T14:45:18.072Z,19.97
2022-10-05T14:48:00.407Z,19.98
2022-10-05T14:50:31.588Z,20.02
2022-10-05T14:53:21.430Z,20.10
2022-10-05T14:56:17.787Z,20.14
2022-10-05T14:58:56.418Z,20.05
2022-10-05T15:01:31.475Z,20.05
2022-10-05T15:04:21.773Z,19.95
2022-10-05T15:07:11.004Z,19.86
2022-10-05T15:09:49.774Z,19.95
2022-10-05T15:12:27.731Z,19.91
2022-10-05T15:15:01.488Z,19.81
2022-10-05T15:17:44.262Z,19.80
2022-10-05T15:20:32.139Z,19.74
2022-10-05T15:23:23.645Z,19.82
2022-10-05T15:26:18.088Z,19.72
2022-10-05T15:29:09.810Z,19.58
2022-10-05T15:31:43.304Z,19.61
2022-10-05T15:34:27.763Z,19.69
2022-10-05T15:37:07.908Z,19.56
2022-10-05T15:39:44.223Z,19.57
2022-10-05T15:42:15.259Z,19.66
2022-10-05T15:45:14.380Z,19.51
2022-10-05T15:47:47.146Z,19.51
2022-10-05T15:50:26.468Z,19.37
2022-10-05T15:53:17.402Z,19.27
2022-10-05T15:56:02.149Z,19.20
2022-10-05T15:58:50.931Z,19.17
2022-10-05T16:01:29.899Z,19.15
2022-10-05T16:04:05.167Z,19.06
2022-10-05T16:07:12.320Z,19.06
2022-10-05T16:09:47.688Z,19.01
2022-10-05T16:12:24.834Z,18.96
2022-10-05T16:15:00.166Z,18.96
2022-10-05T16:17:51.166Z,18.87
2022-10-05T16:20:29.420Z,18.80
2022-10-05T16:23:05.818Z,18.81
2022-10-05T16:26:11.603Z,18.74
2022-10-05T16:28:42.172Z,18.70
2022-10-05T16:31:18.993Z,18.65
2022-10-05T16:34:17.140Z,18.61
2022-10-05T16:36:58.750Z,18.56
2022-10-05T16:39:53.262Z,18.48
2022-10-05T16:42:27.308Z,18.39
2022-10-05T16:44:58.846Z,18.32
2022-10-05T16:47:46.964Z,18.21
2022-10-05T16:50:24.551Z,18.11
2022-10-05T16:52:59.049Z,18.04
2022-10-05T16:55:42.969Z,17.91
2022-10-05T16:58:35.240Z,17.82
2022-10-05T17:01:07.684Z,17.72
2022-10-05T17:04:03.074Z,17.57
2022-10-05T17:06:40.694Z,17.52
2022-10-05T17:09:14.809Z,17.38
2022-10-05T17:12:11.544Z,17.25
2022-10-05T17:14:50.632Z,17.14
2022-10-05T17:17:43.048Z,17.05
2022-10-05T17:20:42.858Z,16.94
2022-10-05T17:23:34.356Z,16.83
2022-10-05T17:26:45.219Z,16.73
2022-10-05T17:29:47.431Z,16.63
2022-10-05T17:32:16.874Z,16.52
2022-10-05T17:35:01.745Z,16.39
2022-10-05T17:37:28.440Z,16.35
2022-10-05T17:39:56.789Z,16.19
2022-10-05T17:42:26.216Z,16.14
2022-10-05T17:45:12.931Z,16.10
2022-10-05T17:48:01.887Z,15.97
2022-10-05T17:51:07.549Z,15.93
2022-10-05T17:53:52.414Z,15.87
2022-10-05T17:56:20.220Z,15.84
2022-10-05T17:58:55.507Z,15.77
2022-10-05T18:01:32.405Z,15.71
2022-10-05T18:04:13.903Z,15.60
2022-10-05T18:06:44.756Z,15.60
2022-10-05T18:09:16.760Z,15.54
2022-10-05T18:11:44.526Z,15.51
2022-10-05T18:14:24.714Z,15.47
2022-10-05T18:17:16.508Z,15.46
2022-10-05T18:20:13.281Z,15.40
2022-10-05T18:22:40.402Z,15.32
2022-10-05T18:25:33.790Z,15.27
2022-10-05T18:28:03.958Z,15.27
2022-10-05T18:30:40.062Z,15.20
2022-10-05T18:33:09.442Z,15.13
2022-10-05T18:35:39.595Z,15.11
2022-10-05T18:38:35.803Z,15.09
2022-10-05T18:41:14.725Z,15.05
2022-10-05T18:43:44.132Z,14.97
2022-10-05T18:46:22.565Z,14.91
2022-10-05T18:48:55.331Z,14.90
2022-10-05T18:51:27.868Z,14.79
2022-10-05T18:54:18.321Z,14.78
2022-10-05T18:56:52.668Z,14.75
2022-10-05T18:59:32.116Z,14.72
2022-10-05T19:02:29.797Z,14.76
2022-10-05T19:05:47.646Z,14.83
2022-10-05T19:08:21.531Z,14.80
2022-10-05T19:10:55.508Z,14.80
2022-10-05T19:13:47.928Z,14.83
2022-10-05T19:16:20.334Z,14.87
2022-10-05T19:19:05.356Z,14.83
2022-10-05T19:21:52.765Z,14.81
2022-10-05T19:24:56.924Z,14.77
2022-10-05T19:27:51.973Z,14.76
2022-10-05T19:30:23.907Z,14.71
2022-10-05T19:33:28.275Z,14.66
2022-10-05T19:36:44.365Z,14.64
2022-10-05T19:39:40.418Z,14.56
2022-10-05T19:42:13.394Z,14.48
2022-10-05T19:44:52.570Z,14.44
2022-10-05T19:48:03.404Z,14.38
2022-10-05T19:50:34.448Z,14.36
2022-10-05T19:53:08.081Z,14.34
2022-10-05T19:55:39.540Z,14.31
2022-10-05T19:58:23.467Z,14.29
2022-10-05T20:01:04.570Z,14.29
2022-10-05T20:03:32.876Z,14.26
2022-10-05T20:06:05.761Z,14.26
2022-10-05T20:08:46.840Z,14.24
2022-10-05T20:11:16.237Z,14.22
2022-10-05T20:14:09.346Z,14.25
2022-10-05T20:16:54.700Z,14.21
2022-10-05T20:19:51.952Z,14.21
2022-10-05T20:22:27.933Z,14.17
2022-10-05T20:24:57.466Z,14.15
2022-10-05T20:27:42.171Z,14.10
2022-10-05T20:30:11.926Z,14.11
2022-10-05T20:32:38.577Z,14.06
2022-10-05T20:35:06.844Z,14.08
2022-10-05T20:37:33.280Z,14.01
2022-10-05T20:39:59.696Z,14.00
2022-10-05T20:42:28.504Z,13.97
2022-10-05T20:44:57.082Z,13.95
2022-10-05T20:47:24.873Z,13.96
2022-10-05T20:49:54.580Z,13.94
2022-10-05T20:52:23.016Z,13.97
2022-10-05T20:54:53.473Z,13.95
2022-10-05T20:57:21.227Z,13.94
2022-10-05T21:00:05.792Z,13.93
2022-10-05T21:02:32.316Z,13.90
2022-10-05T21:04:59.254Z,13.89
2022-10-05T21:07:25.653Z,13.88
2022-10-05T21:09:52.134Z,13.87
2022-10-05T21:12:18.561Z,13.88
2022-10-05T21:14:45.661Z,13.84
2022-10-05T21:17:12.494Z,13.86
2022-10-05T21:19:40.206Z,13.87
2022-10-05T21:22:10.110Z,13.84
2022-10-05T21:24:38.169Z,13.81
2022-10-05T21:27:07.514Z,13.82
2022-10-05T21:29:40.871Z,13.84
2022-10-05T21:32:11.298Z,13.82
2022-10-05T21:34:38.685Z,13.80
2022-10-05T21:37:05.151Z,13.79
2022-10-05T21:39:36.557Z,13.80
2022-10-05T21:42:05.771Z,13.78
2022-10-05T21:44:32.258Z,13.81
2022-10-05T21:46:58.681Z,13.77
2022-10-05T21:49:26.215Z,13.78
2022-10-05T21:51:52.789Z,13.79
2022-10-05T21:54:22.018Z,13.76
2022-10-05T21:56:54.458Z,13.73
2022-10-05T21:59:26.417Z,13.70
2022-10-05T22:01:55.307Z,13.67
2022-10-05T22:04:21.929Z,13.65
2022-10-05T22:06:49.170Z,13.61
2022-10-05T22:09:15.636Z,13.65
2022-10-05T22:11:42.107Z,13.66
2022-10-05T22:14:08.626Z,13.62
2022-10-05T22:16:39.089Z,13.57
2022-10-05T22:19:12.548Z,13.54
2022-10-05T22:21:41.735Z,13.55
2022-10-05T22:24:14.027Z,13.49
2022-10-05T22:26:42.039Z,13.45
2022-10-05T22:29:09.568Z,13.36
2022-10-05T22:31:39.163Z,13.44
2022-10-05T22:34:08.037Z,13.40
2022-10-05T22:36:35.677Z,13.37
2022-10-05T22:39:02.386Z,13.38
2022-10-05T22:41:28.930Z,13.31
2022-10-05T22:43:55.381Z,13.29
2022-10-05T22:46:21.841Z,13.26
2022-10-05T22:48:48.228Z,13.24
2022-10-05T22:51:15.709Z,13.13
2022-10-05T22:53:44.395Z,13.13
2022-10-05T22:56:13.390Z,13.05
2022-10-05T22:58:40.981Z,13.03
2022-10-05T23:01:12.661Z,12.93
2022-10-05T23:03:39.186Z,12.81
2022-10-05T23:06:10.810Z,12.81
2022-10-05T23:08:38.606Z,12.75
2022-10-05T23:11:11.181Z,12.72
2022-10-05T23:13:38.193Z,12.77
2022-10-05T23:16:10.124Z,12.69
2022-10-05T23:18:37.200Z,12.70
2022-10-05T23:21:05.587Z,12.64
2022-10-05T23:23:31.961Z,12.62
2022-10-05T23:26:02.585Z,12.65
2022-10-05T23:28:33.036Z,12.70
2022-10-05T23:31:05.598Z,12.66
2022-10-05T23:33:32.920Z,12.64
2022-10-05T23:36:06.142Z,12.59
2022-10-05T23:38:34.555Z,12.62
2022-10-05T23:41:02.428Z,12.91
2022-10-05T23:43:33.152Z,12.82
2022-10-05T23:46:00.095Z,12.84
2022-10-05T23:48:27.277Z,12.69
2022-10-05T23:50:55.684Z,12.67
2022-10-05T23:53:22.832Z,12.63
2022-10-05T23:55:50.765Z,12.56
2022-10-05T23:58:17.465Z,12.56
